Time;durP1;ratioP1;P1;durP2;ratioP2;P2;SDS_P1;SDS_P2;PMS_P1;PMS_P2;Temp;Humidity;BMP_temperature;BMP_pressure;BME280_temperature;BME280_humidity;BME280_pressure;Samples;Min_cycle;Max_cycle;Signal;HPM_P1;HPM_P2
2023/07/04 00:01:11;;;;;;;10.57;2.92;;;;;;;;;;4990412;28;20069;-76
2023/07/04 00:03:39;;;;;;;9.05;2.10;;;;;;;;;;4993029;28;20069;-88
2023/07/04 00:06:10;;;;;;;11.77;2.95;;;;;;;;;;4993868;28;20046;-90
2023/07/04 00:08:36;;;;;;;11.45;2.25;;;;;;;;;;4988190;28;20425;-76
2023/07/04 00:11:03;;;;;;;14.45;2.30;;;;;;;;;;4995954;28;20185;-77
2023/07/04 00:13:30;;;;;;;14.10;2.60;;;;;;;;;;5016589;28;20057;-79
2023/07/04 00:15:56;;;;;;;10.40;2.28;;;;;;;;;;5005743;28;20607;-89
2023/07/04 00:18:23;;;;;;;11.88;2.25;;;;;;;;;;5002058;28;20049;-81
2023/07/04 00:20:54;;;;;;;11.65;2.28;;;;;;;;;;5005753;28;20072;-80
2023/07/04 00:23:31;;;;;;;8.88;2.30;;;;;;;;;;4988533;28;20034;-82
2023/07/04 00:25:57;;;;;;;9.98;2.60;;;;;;;;;;5022257;28;20099;-80
2023/07/04 00:28:24;;;;;;;9.07;2.25;;;;;;;;;;5005915;28;20040;-85
2023/07/04 00:30:54;;;;;;;13.38;2.30;;;;;;;;;;5003032;28;20112;-89
2023/07/04 00:33:24;;;;;;;13.05;2.85;;;;;;;;;;4998437;28;20050;-90
2023/07/04 00:35:59;;;;;;;14.52;2.47;;;;;;;;;;5005158;28;20045;-85
2023/07/04 00:38:26;;;;;;;14.00;2.60;;;;;;;;;;4999201;28;20419;-84
2023/07/04 00:40:52;;;;;;;11.05;2.30;;;;;;;;;;4995735;28;20079;-89
2023/07/04 00:43:18;;;;;;;12.15;2.30;;;;;;;;;;4997245;28;20604;-82
2023/07/04 00:45:48;;;;;;;7.43;2.10;;;;;;;;;;4997934;28;20607;-91
2023/07/04 00:48:15;;;;;;;11.57;2.60;;;;;;;;;;5012816;28;20050;-91
2023/07/04 00:50:46;;;;;;;14.05;2.40;;;;;;;;;;4999587;28;20396;-77
2023/07/04 00:53:13;;;;;;;11.48;2.60;;;;;;;;;;4998398;28;20045;-82
2023/07/04 00:55:40;;;;;;;10.38;2.40;;;;;;;;;;4997435;28;20109;-89
2023/07/04 00:58:06;;;;;;;13.93;2.55;;;;;;;;;;5005552;28;20046;-75
2023/07/04 01:00:33;;;;;;;10.55;2.50;;;;;;;;;;5015418;28;20069;-83
2023/07/04 01:03:06;;;;;;;13.55;2.13;;;;;;;;;;4997682;28;20042;-92
2023/07/04 01:05:39;;;;;;;10.57;2.38;;;;;;;;;;5001439;28;20045;-87
2023/07/04 01:08:25;;;;;;;11.10;2.70;;;;;;;;;;5018688;28;20189;-79
2023/07/04 01:10:52;;;;;;;9.93;2.53;;;;;;;;;;4975688;28;20513;-92
2023/07/04 01:13:35;;;;;;;13.30;2.38;;;;;;;;;;5000781;28;20819;-92
2023/07/04 01:16:02;;;;;;;11.80;2.30;;;;;;;;;;4999526;28;20038;-82
2023/07/04 01:18:28;;;;;;;6.95;2.20;;;;;;;;;;5019945;28;20058;-81
2023/07/04 01:20:54;;;;;;;11.10;2.33;;;;;;;;;;4999477;28;20445;-90
2023/07/04 01:23:27;;;;;;;8.88;2.20;;;;;;;;;;5003210;28;20053;-86
2023/07/04 01:25:56;;;;;;;6.63;2.20;;;;;;;;;;4997349;28;20057;-91
2023/07/04 01:28:23;;;;;;;11.90;2.40;;;;;;;;;;5002977;28;20045;-86
2023/07/04 01:30:50;;;;;;;12.77;2.60;;;;;;;;;;4997358;28;20057;-85
2023/07/04 01:33:16;;;;;;;13.88;2.70;;;;;;;;;;4993914;28;20112;-92
2023/07/04 01:35:43;;;;;;;12.50;2.75;;;;;;;;;;5012653;28;20137;-88
2023/07/04 01:38:09;;;;;;;7.85;2.17;;;;;;;;;;4999247;28;20057;-88
2023/07/04 01:40:35;;;;;;;9.95;2.20;;;;;;;;;;5001230;28;20435;-91
2023/07/04 01:43:02;;;;;;;9.13;2.53;;;;;;;;;;5000208;28;20088;-90
2023/07/04 01:45:28;;;;;;;11.45;2.80;;;;;;;;;;4996512;28;20085;-92
2023/07/04 01:47:54;;;;;;;10.20;2.67;;;;;;;;;;5013671;28;20076;-91
2023/07/04 01:50:20;;;;;;;8.98;3.15;;;;;;;;;;5000367;28;20127;-81
2023/07/04 01:52:47;;;;;;;10.23;3.10;;;;;;;;;;5018873;28;20085;-81
2023/07/04 01:55:14;;;;;;;11.93;3.47;;;;;;;;;;5002541;28;20758;-87
2023/07/04 01:57:40;;;;;;;15.50;4.03;;;;;;;;;;5017587;28;20051;-91
2023/07/04 02:00:10;;;;;;;17.55;4.10;;;;;;;;;;4997928;28;20432;-88
2023/07/04 02:02:39;;;;;;;19.35;5.43;;;;;;;;;;5017466;28;20091;-87
2023/07/04 02:05:06;;;;;;;17.10;5.43;;;;;;;;;;5018777;28;20518;-87
2023/07/04 02:07:32;;;;;;;15.30;5.47;;;;;;;;;;5019214;28;20408;-90
2023/07/04 02:09:58;;;;;;;16.58;6.57;;;;;;;;;;5014946;28;20029;-88
2023/07/04 02:12:24;;;;;;;19.85;5.93;;;;;;;;;;4997697;28;20053;-88
2023/07/04 02:14:50;;;;;;;16.38;5.75;;;;;;;;;;5005998;28;20868;-82
2023/07/04 02:17:16;;;;;;;17.35;5.80;;;;;;;;;;4999537;28;20095;-94
2023/07/04 02:19:42;;;;;;;13.38;5.78;;;;;;;;;;4997023;28;20049;-87
2023/07/04 02:22:08;;;;;;;19.38;6.15;;;;;;;;;;5001066;28;20045;-93
2023/07/04 02:24:35;;;;;;;21.08;6.38;;;;;;;;;;5001859;28;20103;-87
2023/07/04 02:27:01;;;;;;;21.70;7.13;;;;;;;;;;5002328;28;20480;-88
2023/07/04 02:29:27;;;;;;;22.02;7.10;;;;;;;;;;5016597;28;20128;-91
2023/07/04 02:31:53;;;;;;;20.55;7.78;;;;;;;;;;5000051;28;20100;-92
2023/07/04 02:34:19;;;;;;;20.40;7.63;;;;;;;;;;4989937;28;20037;-92
2023/07/04 02:36:45;;;;;;;23.50;8.13;;;;;;;;;;5018198;28;20571;-91
2023/07/04 02:39:11;;;;;;;18.20;6.82;;;;;;;;;;5020247;28;20091;-84
2023/07/04 02:41:37;;;;;;;23.98;8.40;;;;;;;;;;4998629;28;20054;-88
2023/07/04 02:44:03;;;;;;;18.83;8.45;;;;;;;;;;5000532;28;20892;-90
2023/07/04 02:46:29;;;;;;;26.25;8.75;;;;;;;;;;5013829;28;20449;-89
2023/07/04 02:48:55;;;;;;;18.40;7.50;;;;;;;;;;4997840;28;20120;-92
2023/07/04 02:51:21;;;;;;;25.42;8.18;;;;;;;;;;4993836;28;20060;-80
2023/07/04 02:53:47;;;;;;;25.48;8.30;;;;;;;;;;5015571;28;20050;-92
2023/07/04 02:56:13;;;;;;;22.75;7.50;;;;;;;;;;5019040;28;20716;-92
2023/07/04 02:58:38;;;;;;;20.80;7.65;;;;;;;;;;5011198;28;20077;-90
2023/07/04 03:01:05;;;;;;;29.00;7.70;;;;;;;;;;5012459;28;20071;-90
2023/07/04 03:03:31;;;;;;;23.83;7.13;;;;;;;;;;4994528;28;20045;-83
2023/07/04 03:05:58;;;;;;;21.23;7.03;;;;;;;;;;4998367;28;20041;-91
2023/07/04 03:08:24;;;;;;;21.67;7.55;;;;;;;;;;5018086;28;20130;-92
2023/07/04 03:10:50;;;;;;;19.20;6.85;;;;;;;;;;5014020;28;20068;-89
2023/07/04 03:13:16;;;;;;;21.27;6.15;;;;;;;;;;4994555;28;20071;-90
2023/07/04 03:15:42;;;;;;;18.63;6.00;;;;;;;;;;4996379;28;20591;-92
2023/07/04 03:18:09;;;;;;;13.55;5.97;;;;;;;;;;5015038;28;20049;-92
2023/07/04 03:20:35;;;;;;;25.15;6.88;;;;;;;;;;5017546;28;20076;-86
2023/07/04 03:23:01;;;;;;;15.20;5.85;;;;;;;;;;4992775;28;20154;-91
2023/07/04 03:25:27;;;;;;;24.63;6.78;;;;;;;;;;5017674;28;20529;-92
2023/07/04 03:27:53;;;;;;;15.90;5.28;;;;;;;;;;5012314;28;20054;-93
2023/07/04 03:30:19;;;;;;;15.85;5.22;;;;;;;;;;4994969;28;20121;-92
2023/07/04 03:32:45;;;;;;;16.45;5.25;;;;;;;;;;4993669;28;20485;-91
2023/07/04 03:35:11;;;;;;;14.93;5.30;;;;;;;;;;4999735;28;20092;-82
2023/07/04 03:37:37;;;;;;;18.65;5.25;;;;;;;;;;5013915;28;20041;-77
2023/07/04 03:40:07;;;;;;;17.23;5.25;;;;;;;;;;5015774;28;20056;-83
2023/07/04 03:42:34;;;;;;;20.00;5.15;;;;;;;;;;4999486;28;20054;-84
2023/07/04 03:45:00;;;;;;;15.73;4.40;;;;;;;;;;5003067;28;20475;-91
2023/07/04 03:47:26;;;;;;;12.82;4.95;;;;;;;;;;4993580;28;20046;-84
2023/07/04 03:49:52;;;;;;;11.73;4.63;;;;;;;;;;5003524;28;20240;-81
2023/07/04 03:52:18;;;;;;;14.18;4.40;;;;;;;;;;5001335;28;20099;-84
2023/07/04 03:54:44;;;;;;;14.88;4.15;;;;;;;;;;5025300;28;20083;-76
2023/07/04 03:57:10;;;;;;;15.30;4.90;;;;;;;;;;4989649;28;20041;-76
2023/07/04 03:59:36;;;;;;;17.15;4.32;;;;;;;;;;4999384;28;20056;-92
2023/07/04 04:02:02;;;;;;;20.52;4.63;;;;;;;;;;5002752;28;20096;-91
2023/07/04 04:04:28;;;;;;;14.10;4.40;;;;;;;;;;5015415;28;20033;-86
2023/07/04 04:06:56;;;;;;;18.63;5.03;;;;;;;;;;5022191;28;20042;-84
2023/07/04 04:09:23;;;;;;;15.30;4.93;;;;;;;;;;5003832;28;20045;-90
2023/07/04 04:11:50;;;;;;;17.75;5.10;;;;;;;;;;5002198;28;20564;-76
2023/07/04 04:14:16;;;;;;;13.75;4.93;;;;;;;;;;5022151;28;20049;-76
2023/07/04 04:16:42;;;;;;;16.10;5.53;;;;;;;;;;5024877;28;20132;-90
2023/07/04 04:19:08;;;;;;;18.90;5.47;;;;;;;;;;5003359;28;20203;-75
2023/07/04 04:21:34;;;;;;;14.57;5.20;;;;;;;;;;5023092;28;20056;-82
2023/07/04 04:24:00;;;;;;;16.83;5.63;;;;;;;;;;4996945;28;20045;-81
2023/07/04 04:26:32;;;;;;;18.27;5.85;;;;;;;;;;5003921;28;20045;-76
2023/07/04 04:28:58;;;;;;;20.70;6.25;;;;;;;;;;4993884;28;20045;-77
2023/07/04 04:31:24;;;;;;;16.08;6.10;;;;;;;;;;5017440;28;20046;-79
2023/07/04 04:33:50;;;;;;;17.98;5.93;;;;;;;;;;4994850;28;20478;-79
2023/07/04 04:36:17;;;;;;;19.60;6.53;;;;;;;;;;4999676;28;20053;-79
2023/07/04 04:38:43;;;;;;;16.65;5.57;;;;;;;;;;5012080;28;20044;-86
2023/07/04 04:41:09;;;;;;;21.70;6.32;;;;;;;;;;4999661;28;20541;-76
2023/07/04 04:43:35;;;;;;;20.45;5.45;;;;;;;;;;4998177;28;20093;-75
2023/07/04 04:46:02;;;;;;;20.00;6.30;;;;;;;;;;4994857;28;20144;-81
2023/07/04 04:48:35;;;;;;;12.55;5.60;;;;;;;;;;5011467;28;20438;-75
2023/07/04 04:51:09;;;;;;;16.98;5.88;;;;;;;;;;4992939;28;20054;-74
2023/07/04 04:53:36;;;;;;;12.85;5.22;;;;;;;;;;4986949;28;20053;-75
2023/07/04 04:56:02;;;;;;;17.23;5.88;;;;;;;;;;5008227;28;20048;-80
2023/07/04 04:58:28;;;;;;;11.77;5.43;;;;;;;;;;4993193;28;20037;-73
2023/07/04 05:00:54;;;;;;;13.20;5.65;;;;;;;;;;4996768;28;20056;-77
2023/07/04 05:03:20;;;;;;;14.57;5.70;;;;;;;;;;5017912;28;20029;-74
2023/07/04 05:05:46;;;;;;;17.40;5.60;;;;;;;;;;5016601;28;20133;-76
2023/07/04 05:08:12;;;;;;;16.50;5.95;;;;;;;;;;4998150;28;20049;-85
2023/07/04 05:10:38;;;;;;;16.48;5.43;;;;;;;;;;5015378;28;20141;-86
2023/07/04 05:13:04;;;;;;;17.33;5.40;;;;;;;;;;5018945;28;20107;-86
2023/07/04 05:15:30;;;;;;;19.23;5.65;;;;;;;;;;5015078;28;20143;-77
2023/07/04 05:17:56;;;;;;;18.08;5.60;;;;;;;;;;5005314;28;20061;-78
2023/07/04 05:20:23;;;;;;;18.92;5.32;;;;;;;;;;5001787;28;20061;-80
2023/07/04 05:22:56;;;;;;;17.90;5.13;;;;;;;;;;4999596;28;20053;-83
2023/07/04 05:25:22;;;;;;;14.65;5.35;;;;;;;;;;5001657;28;20076;-87
2023/07/04 05:27:50;;;;;;;13.43;5.15;;;;;;;;;;5007788;28;21245;-86
2023/07/04 05:30:16;;;;;;;17.63;5.03;;;;;;;;;;5010285;28;20033;-81
2023/07/04 05:32:42;;;;;;;12.65;5.35;;;;;;;;;;5015212;28;20056;-87
2023/07/04 05:35:08;;;;;;;11.73;4.63;;;;;;;;;;5024789;28;20060;-76
2023/07/04 05:37:34;;;;;;;13.68;5.18;;;;;;;;;;5029417;28;20073;-82
2023/07/04 05:40:00;;;;;;;16.00;4.32;;;;;;;;;;5022563;28;20045;-86
2023/07/04 05:42:28;;;;;;;14.30;4.80;;;;;;;;;;5020163;28;20083;-89
2023/07/04 05:44:53;;;;;;;17.92;4.97;;;;;;;;;;5001552;28;20578;-90
2023/07/04 05:47:19;;;;;;;13.20;4.03;;;;;;;;;;4997596;28;20050;-89
2023/07/04 05:49:45;;;;;;;13.68;4.43;;;;;;;;;;5000891;28;20045;-89
2023/07/04 05:52:11;;;;;;;9.60;3.95;;;;;;;;;;4995966;28;20056;-81
2023/07/04 05:54:37;;;;;;;9.85;3.75;;;;;;;;;;5020466;28;20547;-87
2023/07/04 05:57:03;;;;;;;12.40;3.60;;;;;;;;;;5002655;28;20179;-90
2023/07/04 05:59:30;;;;;;;7.80;3.53;;;;;;;;;;5009814;28;20049;-81
2023/07/04 06:01:58;;;;;;;12.88;3.35;;;;;;;;;;4996888;28;20418;-87
2023/07/04 06:04:24;;;;;;;9.95;3.55;;;;;;;;;;4990522;28;20042;-89
2023/07/04 06:06:51;;;;;;;10.32;2.90;;;;;;;;;;4992462;28;20033;-85
2023/07/04 06:09:18;;;;;;;11.40;3.38;;;;;;;;;;4990901;28;20966;-76
2023/07/04 06:11:45;;;;;;;9.65;2.88;;;;;;;;;;5013945;28;20057;-79
2023/07/04 06:14:15;;;;;;;7.70;2.75;;;;;;;;;;5003711;28;20038;-73
2023/07/04 06:16:41;;;;;;;9.02;2.60;;;;;;;;;;4994730;28;20041;-81
2023/07/04 06:19:07;;;;;;;6.95;2.67;;;;;;;;;;5015001;28;20160;-82
2023/07/04 06:21:33;;;;;;;9.40;2.33;;;;;;;;;;4984031;28;20376;-78
2023/07/04 06:23:59;;;;;;;9.65;2.60;;;;;;;;;;5015828;28;20046;-75
2023/07/04 06:26:27;;;;;;;8.48;2.45;;;;;;;;;;4984708;28;20119;-76
2023/07/04 06:28:54;;;;;;;7.80;2.30;;;;;;;;;;5014392;28;20037;-79
2023/07/04 06:31:20;;;;;;;8.88;2.67;;;;;;;;;;4987289;28;20042;-81
2023/07/04 06:33:46;;;;;;;10.52;2.50;;;;;;;;;;4993215;28;20056;-74
2023/07/04 06:36:13;;;;;;;8.50;2.22;;;;;;;;;;5014971;28;20050;-84
2023/07/04 06:38:40;;;;;;;8.00;2.08;;;;;;;;;;4994044;28;20182;-77
2023/07/04 06:41:10;;;;;;;5.47;1.77;;;;;;;;;;5002180;28;20459;-76
2023/07/04 06:43:37;;;;;;;8.63;1.83;;;;;;;;;;4991577;28;20525;-80
2023/07/04 06:46:03;;;;;;;7.20;1.90;;;;;;;;;;4980644;28;20524;-77
2023/07/04 06:48:30;;;;;;;6.38;1.70;;;;;;;;;;4988257;28;20046;-77
2023/07/04 06:50:56;;;;;;;6.68;1.60;;;;;;;;;;4991270;28;20490;-79
2023/07/04 06:53:22;;;;;;;6.65;1.60;;;;;;;;;;4982696;28;20038;-78
2023/07/04 06:55:48;;;;;;;7.85;1.90;;;;;;;;;;4996726;28;20045;-78
2023/07/04 06:58:15;;;;;;;6.75;1.60;;;;;;;;;;5006029;28;20042;-79
2023/07/04 07:00:41;;;;;;;7.18;1.70;;;;;;;;;;4982806;28;20125;-77
2023/07/04 07:03:07;;;;;;;7.57;1.90;;;;;;;;;;4975883;28;20042;-76
2023/07/04 07:05:37;;;;;;;6.63;1.80;;;;;;;;;;4992945;28;20549;-76
2023/07/04 07:08:03;;;;;;;4.95;1.58;;;;;;;;;;4995462;28;20422;-75
2023/07/04 07:10:31;;;;;;;5.10;1.75;;;;;;;;;;5004135;28;20124;-77
2023/07/04 07:12:57;;;;;;;9.35;2.70;;;;;;;;;;4987348;28;20524;-77
2023/07/04 07:15:23;;;;;;;6.80;1.67;;;;;;;;;;4988183;28;20038;-78
2023/07/04 07:17:49;;;;;;;8.57;2.05;;;;;;;;;;4990273;28;20041;-81
2023/07/04 07:20:15;;;;;;;5.47;1.70;;;;;;;;;;4997071;28;20045;-81
2023/07/04 07:22:41;;;;;;;5.68;1.33;;;;;;;;;;4993369;28;20177;-82
2023/07/04 07:25:07;;;;;;;6.70;1.65;;;;;;;;;;4985564;28;20666;-78
2023/07/04 07:27:33;;;;;;;5.50;1.77;;;;;;;;;;4989145;28;20137;-83
2023/07/04 07:30:00;;;;;;;6.60;1.70;;;;;;;;;;4994822;28;21175;-81
2023/07/04 07:32:25;;;;;;;6.00;1.90;;;;;;;;;;4993264;28;20566;-81
2023/07/04 07:34:53;;;;;;;9.65;1.77;;;;;;;;;;5008837;28;20046;-84
2023/07/04 07:37:19;;;;;;;13.93;2.55;;;;;;;;;;4986662;28;20426;-78
2023/07/04 07:39:45;;;;;;;7.32;1.73;;;;;;;;;;4988064;28;21436;-82
2023/07/04 07:42:12;;;;;;;5.63;1.58;;;;;;;;;;4988290;28;20057;-82
2023/07/04 07:44:38;;;;;;;8.73;1.50;;;;;;;;;;4988554;28;20145;-80
2023/07/04 07:47:04;;;;;;;7.35;1.92;;;;;;;;;;5000187;28;20068;-80
2023/07/04 07:49:30;;;;;;;5.00;1.52;;;;;;;;;;4983811;28;20046;-87
2023/07/04 07:51:57;;;;;;;10.50;1.80;;;;;;;;;;4991420;28;20048;-87
2023/07/04 07:54:22;;;;;;;9.80;2.00;;;;;;;;;;4993115;28;20149;-87
2023/07/04 07:56:48;;;;;;;8.23;1.88;;;;;;;;;;4987533;28;20145;-86
2023/07/04 07:59:15;;;;;;;8.38;2.00;;;;;;;;;;5004027;28;20038;-87
2023/07/04 08:01:41;;;;;;;9.85;2.55;;;;;;;;;;4994283;28;20049;-88
2023/07/04 08:04:07;;;;;;;10.38;1.58;;;;;;;;;;4991346;28;20129;-88
2023/07/04 08:06:36;;;;;;;7.28;1.98;;;;;;;;;;4990437;28;20052;-89
2023/07/04 08:09:03;;;;;;;6.75;1.50;;;;;;;;;;4989027;28;20096;-87
2023/07/04 08:11:30;;;;;;;10.27;1.77;;;;;;;;;;4988883;28;20056;-86
2023/07/04 08:13:56;;;;;;;10.07;1.83;;;;;;;;;;5004961;28;20049;-81
2023/07/04 08:16:24;;;;;;;9.05;1.95;;;;;;;;;;4991765;28;20053;-85
2023/07/04 08:18:50;;;;;;;6.55;1.67;;;;;;;;;;4989552;28;20048;-80
2023/07/04 08:21:17;;;;;;;7.45;1.70;;;;;;;;;;4994856;28;20057;-87
2023/07/04 08:23:43;;;;;;;6.05;1.70;;;;;;;;;;4987279;28;20050;-87
2023/07/04 08:26:14;;;;;;;5.82;1.92;;;;;;;;;;4989922;28;20218;-85
2023/07/04 08:28:40;;;;;;;7.80;1.77;;;;;;;;;;4992978;28;20026;-88
2023/07/04 08:31:06;;;;;;;8.23;1.80;;;;;;;;;;4988740;28;20626;-85
2023/07/04 08:33:33;;;;;;;6.47;1.73;;;;;;;;;;4986114;28;20050;-87
2023/07/04 08:36:00;;;;;;;8.07;2.00;;;;;;;;;;4973106;28;20045;-81
2023/07/04 08:38:26;;;;;;;7.90;1.92;;;;;;;;;;4989164;28;20046;-86
2023/07/04 08:40:53;;;;;;;5.40;1.60;;;;;;;;;;4993138;28;20042;-89
2023/07/04 08:43:21;;;;;;;6.22;1.70;;;;;;;;;;4983015;28;20111;-88
2023/07/04 08:45:48;;;;;;;9.70;2.58;;;;;;;;;;4998928;28;20046;-83
2023/07/04 08:48:17;;;;;;;6.32;1.63;;;;;;;;;;4995940;28;20069;-83
2023/07/04 08:50:44;;;;;;;9.75;1.90;;;;;;;;;;4983445;28;20375;-89
2023/07/04 08:53:14;;;;;;;8.33;1.80;;;;;;;;;;4985582;28;20042;-88
2023/07/04 08:55:46;;;;;;;7.50;1.80;;;;;;;;;;5007727;28;20050;-89
2023/07/04 08:58:14;;;;;;;8.23;1.63;;;;;;;;;;4989833;28;20975;-82
2023/07/04 09:00:42;;;;;;;6.03;1.60;;;;;;;;;;4992421;28;20037;-83
2023/07/04 09:03:17;;;;;;;10.68;1.80;;;;;;;;;;4988085;28;20635;-88
2023/07/04 09:05:54;;;;;;;7.55;1.90;;;;;;;;;;4994647;28;20751;-89
2023/07/04 09:08:31;;;;;;;9.43;2.08;;;;;;;;;;4988993;28;20058;-84
2023/07/04 09:10:59;;;;;;;7.63;1.92;;;;;;;;;;4984921;28;20125;-78
2023/07/04 09:13:26;;;;;;;11.80;2.38;;;;;;;;;;4989418;28;20044;-86
2023/07/04 09:15:54;;;;;;;7.65;1.60;;;;;;;;;;4987942;28;20038;-84
2023/07/04 09:18:39;;;;;;;8.38;1.98;;;;;;;;;;4989206;28;20058;-78
2023/07/04 09:21:15;;;;;;;5.75;1.75;;;;;;;;;;4984830;28;20066;-87
2023/07/04 09:23:42;;;;;;;6.72;1.92;;;;;;;;;;4983814;28;20053;-88
2023/07/04 09:26:10;;;;;;;10.23;2.05;;;;;;;;;;4986088;28;20046;-87
2023/07/04 09:28:37;;;;;;;8.50;1.90;;;;;;;;;;4985294;28;20881;-87
2023/07/04 09:31:05;;;;;;;11.70;2.13;;;;;;;;;;5012554;28;20046;-83
2023/07/04 09:33:31;;;;;;;14.20;2.53;;;;;;;;;;4994970;28;20173;-84
2023/07/04 09:35:57;;;;;;;8.25;2.25;;;;;;;;;;4994110;28;21534;-80
2023/07/04 09:38:23;;;;;;;10.13;1.90;;;;;;;;;;4994416;28;20053;-85
2023/07/04 09:40:51;;;;;;;11.05;2.15;;;;;;;;;;4996394;28;20058;-84
2023/07/04 09:43:31;;;;;;;10.63;2.38;;;;;;;;;;4992536;28;20070;-81
2023/07/04 09:46:11;;;;;;;9.02;1.98;;;;;;;;;;5014562;28;20062;-78
2023/07/04 09:48:37;;;;;;;10.60;2.03;;;;;;;;;;4985921;28;20172;-78
2023/07/04 09:51:16;;;;;;;8.35;2.40;;;;;;;;;;4984285;28;20050;-77
2023/07/04 09:53:41;;;;;;;;;;;;;;;;;;4988097;28;20070;-84
2023/07/04 09:56:08;;;;;;;15.10;2.20;;;;;;;;;;4993540;28;20020;-84
2023/07/04 09:58:36;;;;;;;9.68;2.17;;;;;;;;;;4992144;28;20084;-79
2023/07/04 10:01:10;;;;;;;11.00;1.95;;;;;;;;;;4988728;28;20077;-82
2023/07/04 10:03:39;;;;;;;12.77;2.10;;;;;;;;;;4986195;28;20057;-80
2023/07/04 10:06:06;;;;;;;15.23;2.28;;;;;;;;;;4989093;28;20050;-80
2023/07/04 10:08:33;;;;;;;13.27;2.25;;;;;;;;;;4983028;28;20490;-81
2023/07/04 10:10:59;;;;;;;11.15;2.13;;;;;;;;;;4990657;28;20476;-80
2023/07/04 10:13:38;;;;;;;12.80;2.80;;;;;;;;;;4989175;28;20047;-80
2023/07/04 10:16:04;;;;;;;;;;;;;;;;;;4991548;28;20034;-77
2023/07/04 10:18:33;;;;;;;16.92;2.92;;;;;;;;;;4976298;28;19952;-82
2023/07/04 10:21:01;;;;;;;9.48;2.35;;;;;;;;;;4988376;28;20046;-79
2023/07/04 10:23:28;;;;;;;8.68;2.40;;;;;;;;;;4994146;28;20054;-79
2023/07/04 10:25:58;;;;;;;9.25;2.40;;;;;;;;;;4993574;28;20650;-78
2023/07/04 10:28:26;;;;;;;9.18;1.85;;;;;;;;;;4993195;28;20149;-78
2023/07/04 10:30:55;;;;;;;9.13;2.40;;;;;;;;;;4993326;28;20920;-77
2023/07/04 10:33:24;;;;;;;12.90;2.38;;;;;;;;;;4985531;28;20085;-79
2023/07/04 10:35:50;;;;;;;10.95;2.15;;;;;;;;;;4989675;28;20600;-85
2023/07/04 10:38:16;;;;;;;11.13;1.85;;;;;;;;;;4985202;28;20137;-80
2023/07/04 10:40:43;;;;;;;8.10;2.00;;;;;;;;;;4996937;28;20033;-77
2023/07/04 10:43:13;;;;;;;11.93;2.53;;;;;;;;;;4984290;28;20066;-79
2023/07/04 10:45:41;;;;;;;8.38;2.38;;;;;;;;;;4983404;28;20085;-78
2023/07/04 10:48:14;;;;;;;8.10;1.92;;;;;;;;;;4993311;28;20077;-80
2023/07/04 10:50:47;;;;;;;8.15;1.70;;;;;;;;;;4992186;28;20817;-74
2023/07/04 10:53:13;;;;;;;7.32;1.52;;;;;;;;;;4978021;28;20050;-74
2023/07/04 10:56:02;;;;;;;9.65;1.85;;;;;;;;;;4987950;28;20611;-73
2023/07/04 10:58:32;;;;;;;8.88;1.85;;;;;;;;;;5003313;28;20092;-73
2023/07/04 11:01:01;;;;;;;10.30;2.03;;;;;;;;;;4980986;28;20054;-73
2023/07/04 11:03:27;;;;;;;10.50;2.05;;;;;;;;;;4978734;28;20438;-76
2023/07/04 11:05:55;;;;;;;11.40;1.83;;;;;;;;;;4989679;28;20125;-74
2023/07/04 11:08:22;;;;;;;7.55;1.95;;;;;;;;;;4989488;28;20104;-76
2023/07/04 11:10:51;;;;;;;10.48;1.90;;;;;;;;;;4980652;28;20054;-77
2023/07/04 11:13:18;;;;;;;7.93;2.20;;;;;;;;;;4984866;28;20224;-73
2023/07/04 11:15:47;;;;;;;6.38;1.70;;;;;;;;;;4985797;28;20042;-82
2023/07/04 11:18:18;;;;;;;9.00;1.95;;;;;;;;;;4992561;28;20042;-81
2023/07/04 11:20:51;;;;;;;7.43;1.80;;;;;;;;;;4988303;28;20061;-80
2023/07/04 11:23:21;;;;;;;5.80;1.63;;;;;;;;;;4975307;28;20229;-82
2023/07/04 11:25:59;;;;;;;7.07;1.85;;;;;;;;;;5010523;28;20627;-73
2023/07/04 11:28:26;;;;;;;11.52;2.13;;;;;;;;;;4987660;28;20050;-81
2023/07/04 11:30:53;;;;;;;8.10;1.90;;;;;;;;;;4995055;28;20049;-75
2023/07/04 11:33:52;;;;;;;8.07;2.00;;;;;;;;;;4989677;28;20049;-72
2023/07/04 11:36:26;;;;;;;9.30;2.03;;;;;;;;;;4973179;28;21115;-74
2023/07/04 11:38:53;;;;;;;7.93;1.85;;;;;;;;;;4992725;28;20521;-72
2023/07/04 11:41:27;;;;;;;9.77;2.10;;;;;;;;;;4986331;28;20053;-73
2023/07/04 11:43:54;;;;;;;11.27;2.30;;;;;;;;;;4992496;28;20088;-76
2023/07/04 11:46:21;;;;;;;14.95;2.38;;;;;;;;;;4986963;28;20042;-72
2023/07/04 11:48:49;;;;;;;6.55;2.08;;;;;;;;;;5003470;28;20056;-71
2023/07/04 11:51:17;;;;;;;7.55;2.35;;;;;;;;;;4991878;28;20508;-78
2023/07/04 11:53:45;;;;;;;11.05;2.20;;;;;;;;;;5005044;28;20152;-81
2023/07/04 11:56:22;;;;;;;9.30;1.92;;;;;;;;;;4990056;28;20054;-76
2023/07/04 11:59:08;;;;;;;8.27;2.00;;;;;;;;;;4988719;28;20052;-77
2023/07/04 12:01:56;;;;;;;8.63;2.20;;;;;;;;;;5006079;28;20046;-78
2023/07/04 12:04:22;;;;;;;;;;;;;;;;;;4975118;28;20841;-76
2023/07/04 12:06:52;;;;;;;7.93;2.03;;;;;;;;;;4990806;28;19933;-74
2023/07/04 12:09:30;;;;;;;12.27;2.40;;;;;;;;;;4991084;28;20568;-80
2023/07/04 12:11:57;;;;;;;11.95;2.03;;;;;;;;;;5006885;28;20041;-78
2023/07/04 12:14:23;;;;;;;8.10;2.38;;;;;;;;;;4991440;28;20054;-80
2023/07/04 12:16:50;;;;;;;13.35;2.55;;;;;;;;;;4996263;28;20447;-77
2023/07/04 12:19:17;;;;;;;6.78;2.10;;;;;;;;;;4998429;28;20048;-81
2023/07/04 12:21:45;;;;;;;8.50;2.10;;;;;;;;;;4994884;28;20059;-77
2023/07/04 12:24:12;;;;;;;9.07;2.10;;;;;;;;;;4992565;28;20045;-83
2023/07/04 12:26:38;;;;;;;7.30;1.98;;;;;;;;;;5005410;28;20104;-81
2023/07/04 12:29:05;;;;;;;11.85;2.33;;;;;;;;;;4996901;28;20053;-81
2023/07/04 12:31:31;;;;;;;9.80;2.28;;;;;;;;;;5004414;28;20524;-78
2023/07/04 12:33:57;;;;;;;13.90;2.70;;;;;;;;;;5010443;28;20045;-80
2023/07/04 12:36:31;;;;;;;9.80;2.53;;;;;;;;;;4995790;28;20556;-81
2023/07/04 12:38:58;;;;;;;11.70;3.22;;;;;;;;;;4985839;28;20124;-76
2023/07/04 12:41:48;;;;;;;9.57;2.30;;;;;;;;;;4991633;28;20149;-81
2023/07/04 12:47:40;;;;;;;7.45;1.95;;;;;;;;;;4985999;28;20049;-81
2023/07/04 12:50:06;;;;;;;10.15;1.98;;;;;;;;;;5006726;28;20106;-80
2023/07/04 12:52:33;;;;;;;7.32;1.80;;;;;;;;;;4989859;28;20030;-81
2023/07/04 12:55:03;;;;;;;11.50;2.17;;;;;;;;;;4992034;28;20049;-80
2023/07/04 12:57:42;;;;;;;9.43;2.30;;;;;;;;;;4990465;28;20202;-81
2023/07/04 13:00:09;;;;;;;10.65;2.00;;;;;;;;;;5001304;28;20046;-80
2023/07/04 13:02:48;;;;;;;7.18;1.77;;;;;;;;;;4970241;28;20060;-79
2023/07/04 13:05:16;;;;;;;9.18;2.20;;;;;;;;;;4990281;28;20320;-81
2023/07/04 13:10:53;;;;;;;9.10;2.33;;;;;;;;;;5009634;28;20053;-81
2023/07/04 13:13:39;;;;;;;8.90;2.95;;;;;;;;;;4994377;28;20056;-81
2023/07/04 13:16:13;;;;;;;7.15;2.10;;;;;;;;;;4990452;28;20045;-79
2023/07/04 13:18:47;;;;;;;10.80;2.05;;;;;;;;;;4980313;28;20643;-80
2023/07/04 13:24:31;;;;;;;9.50;2.22;;;;;;;;;;4989111;28;20068;-82
2023/07/04 13:27:09;;;;;;;7.40;1.93;;;;;;;;;;4996763;28;20132;-81
2023/07/04 13:29:35;;;;;;;8.25;2.05;;;;;;;;;;4976007;28;20084;-79
2023/07/04 13:32:01;;;;;;;5.53;1.95;;;;;;;;;;5011800;28;20136;-76
2023/07/04 13:34:31;;;;;;;7.57;1.95;;;;;;;;;;5007609;28;20053;-73
2023/07/04 13:37:02;;;;;;;10.05;1.92;;;;;;;;;;4996302;28;20501;-77
2023/07/04 13:39:31;;;;;;;6.68;1.98;;;;;;;;;;4987144;28;20172;-81
2023/07/04 13:41:58;;;;;;;6.72;1.67;;;;;;;;;;4980666;28;20068;-72
2023/07/04 13:44:24;;;;;;;15.77;2.70;;;;;;;;;;5017409;28;20069;-83
2023/07/04 13:46:50;;;;;;;12.50;2.10;;;;;;;;;;5015295;28;20828;-78
2023/07/04 13:49:16;;;;;;;13.75;2.25;;;;;;;;;;5009788;28;21440;-77
2023/07/04 13:52:06;;;;;;;7.45;1.80;;;;;;;;;;5004949;28;20050;-79
2023/07/04 13:54:34;;;;;;;7.75;1.85;;;;;;;;;;4989065;28;20052;-81
2023/07/04 13:57:00;;;;;;;7.80;1.70;;;;;;;;;;4991804;28;20046;-83
2023/07/04 13:59:26;;;;;;;8.75;1.88;;;;;;;;;;4986557;28;20243;-80
2023/07/04 14:01:52;;;;;;;7.38;1.70;;;;;;;;;;5001289;28;20057;-83
2023/07/04 14:04:18;;;;;;;6.82;1.83;;;;;;;;;;5008275;28;20049;-81
2023/07/04 14:06:46;;;;;;;10.00;1.80;;;;;;;;;;4984818;28;20053;-83
2023/07/04 14:09:12;;;;;;;7.68;1.80;;;;;;;;;;4994360;28;20058;-82
2023/07/04 14:11:39;;;;;;;10.80;2.28;;;;;;;;;;5011896;28;20049;-82
2023/07/04 14:14:05;;;;;;;8.45;1.83;;;;;;;;;;5003062;28;20034;-81
2023/07/04 14:16:31;;;;;;;9.27;1.83;;;;;;;;;;4989842;28;20137;-84
2023/07/04 14:18:57;;;;;;;7.13;1.70;;;;;;;;;;4987938;28;20052;-82
2023/07/04 14:21:23;;;;;;;6.22;1.70;;;;;;;;;;4991375;28;20058;-83
2023/07/04 14:23:49;;;;;;;7.93;2.05;;;;;;;;;;4995939;28;20087;-75
2023/07/04 14:26:17;;;;;;;8.55;2.13;;;;;;;;;;5013729;28;21056;-81
2023/07/04 14:28:43;;;;;;;7.88;1.90;;;;;;;;;;5013593;28;20049;-82
2023/07/04 14:31:09;;;;;;;8.93;2.00;;;;;;;;;;4987907;28;20073;-78
2023/07/04 14:33:36;;;;;;;6.57;1.60;;;;;;;;;;4984441;28;20063;-77
2023/07/04 14:36:05;;;;;;;9.15;2.15;;;;;;;;;;4987597;28;20056;-81
2023/07/04 14:38:33;;;;;;;12.60;2.10;;;;;;;;;;4993562;28;20060;-81
2023/07/04 14:41:02;;;;;;;8.45;1.85;;;;;;;;;;4998865;28;20058;-81
2023/07/04 14:43:28;;;;;;;11.00;2.13;;;;;;;;;;4984806;28;20054;-80
2023/07/04 14:45:58;;;;;;;6.68;2.10;;;;;;;;;;5000296;28;20440;-79
2023/07/04 14:48:24;;;;;;;7.45;1.90;;;;;;;;;;4987017;28;20234;-81
2023/07/04 14:51:07;;;;;;;7.32;1.88;;;;;;;;;;4992563;28;20733;-83